Time;durP1;ratioP1;P1;durP2;ratioP2;P2;SDS_P1;SDS_P2;PMS_P1;PMS_P2;Temp;Humidity;BMP_temperature;BMP_pressure;BME280_temperature;BME280_humidity;BME280_pressure;Samples;Min_cycle;Max_cycle;Signal;HPM_P1;HPM_P2
2022/11/11 00:00:40;;;;;;;31.27;22.58;;;13.20;99.90;;;13.41;91.35;102618.31;5112673;28;20062;-66
2022/11/11 00:03:27;;;;;;;43.15;23.98;;;13.10;99.90;;;13.41;91.39;102631.63;5112814;28;20071;-65
2022/11/11 00:06:22;;;;;;;35.90;22.88;;;13.20;99.90;;;13.24;91.23;102587.13;5112369;28;20058;-66
2022/11/11 00:09:10;;;;;;;37.25;24.50;;;13.20;99.90;;;13.39;91.33;102616.53;5112677;28;20051;-67
2022/11/11 00:11:58;;;;;;;33.05;24.25;;;13.20;99.90;;;13.33;91.43;102616.47;5112659;28;20059;-66
2022/11/11 00:14:45;;;;;;;40.17;24.52;;;13.10;99.90;;;13.08;91.41;102602.00;5112904;28;20046;-67
2022/11/11 00:26:47;;;;;;;39.22;26.15;;;13.00;99.90;;;12.96;91.77;102572.56;5112907;28;20059;-66
2022/11/11 00:29:34;;;;;;;39.28;26.42;;;13.00;99.90;;;13.28;91.93;102644.72;5113006;28;20055;-66
2022/11/11 00:32:29;;;;;;;39.90;27.20;;;13.00;99.90;;;13.19;92.27;102640.22;5112644;28;20499;-66
2022/11/11 00:41:27;;;;;;;39.45;27.27;;;13.00;99.90;;;13.18;92.55;102619.81;5112898;28;20043;-66
2022/11/11 00:44:14;;;;;;;38.80;27.27;;;12.90;99.90;;;13.13;93.04;102640.13;5112822;28;20458;-66
2022/11/11 00:53:17;;;;;;;37.63;26.60;;;12.90;99.90;;;13.07;93.14;102624.09;5112346;28;20138;-66
2022/11/11 00:56:12;;;;;;;41.55;26.63;;;12.80;99.90;;;12.93;93.71;102615.00;5112201;28;20118;-66
2022/11/11 00:58:59;;;;;;;42.20;25.67;;;12.70;99.90;;;12.98;93.86;102610.66;5112247;28;20051;-66
2022/11/11 01:01:47;;;;;;;36.70;25.98;;;12.70;99.90;;;12.93;94.37;102615.00;5112307;28;20062;-66
2022/11/11 01:04:34;;;;;;;40.03;27.65;;;12.70;99.90;;;12.88;94.34;102608.75;5112270;28;20560;-65
2022/11/11 01:07:21;;;;;;;44.72;27.67;;;12.70;99.90;;;12.73;94.35;102568.69;5112323;28;20059;-66
2022/11/11 01:10:11;;;;;;;43.67;28.42;;;12.70;99.90;;;12.47;94.59;102535.56;5112407;28;20062;-66
2022/11/11 01:13:10;;;;;;;47.03;27.98;;;12.60;99.90;;;12.79;94.47;102602.41;5112181;28;20051;-66
2022/11/11 01:16:02;;;;;;;41.10;27.70;;;12.60;99.90;;;12.83;94.81;102618.44;5112240;28;20396;-66
2022/11/11 01:18:51;;;;;;;43.13;28.90;;;12.60;99.90;;;12.75;95.06;102604.13;5115922;28;20127;-66
2022/11/11 01:21:38;;;;;;;43.17;28.50;;;12.50;99.90;;;12.52;95.12;102563.09;5115927;28;20046;-65
2022/11/11 01:24:25;;;;;;;40.88;29.25;;;12.50;99.90;;;12.75;95.13;102596.16;5115749;28;20137;-65
2022/11/11 01:27:14;;;;;;;44.53;28.73;;;12.60;99.90;;;12.89;95.02;102609.66;5115733;28;20059;-66
2022/11/11 01:30:01;;;;;;;47.17;29.63;;;12.60;99.90;;;12.64;94.37;102571.22;5115969;28;20215;-66
2022/11/11 01:32:50;;;;;;;47.53;30.88;;;12.60;99.90;;;11.05;94.43;102300.03;5115937;28;20508;-65
2022/11/11 01:35:39;;;;;;;45.30;30.55;;;12.60;99.90;;;12.79;95.17;102628.97;5115603;28;20051;-66
2022/11/11 01:38:26;;;;;;;42.25;29.55;;;12.60;99.90;;;12.80;95.26;102615.72;5115370;28;20574;-66
2022/11/11 01:41:32;;;;;;;43.97;30.15;;;12.60;99.90;;;12.83;95.14;102613.13;5115514;28;20119;-66
2022/11/11 01:44:45;;;;;;;41.47;30.45;;;12.60;99.90;;;12.81;95.37;102606.88;5115442;28;20050;-66
2022/11/11 01:49:17;;;;;;;44.72;29.10;;;12.60;99.90;;;12.64;95.21;102579.16;5115542;28;20066;-66
2022/11/11 01:50:59;;;;;;;41.13;29.45;;;12.60;99.90;;;12.91;94.88;102599.94;5115387;28;20503;-66
2022/11/11 01:53:49;;;;;;;43.60;29.90;;;12.70;99.90;;;12.92;94.93;102615.88;5115572;28;20136;-66
2022/11/11 01:56:37;;;;;;;40.60;29.00;;;12.70;99.90;;;12.91;94.61;102608.78;5115026;28;20066;-66
2022/11/11 01:59:24;;;;;;;41.55;28.75;;;12.70;99.90;;;12.89;94.50;102604.34;5115151;28;20094;-65
2022/11/11 02:02:19;;;;;;;45.60;28.73;;;12.70;99.90;;;12.87;94.58;102612.28;5115328;28;20356;-66
2022/11/11 02:08:31;;;;;;;40.85;27.73;;;12.60;99.90;;;12.82;94.90;102621.03;5114934;28;20058;-66
2022/11/11 02:14:34;;;;;;;43.47;27.92;;;12.60;99.90;;;12.65;94.84;102592.50;5115046;28;20073;-65
2022/11/11 02:14:38;;;;;;;43.47;27.83;;;12.50;99.90;;;12.73;95.58;102592.59;5114905;28;20059;-66
2022/11/11 02:17:31;;;;;;;42.10;27.95;;;12.50;99.90;;;12.44;95.94;102564.72;5114838;28;20050;-66
2022/11/11 02:20:23;;;;;;;41.70;27.40;;;12.40;99.90;;;12.73;95.84;102604.97;5114847;28;20062;-66
2022/11/11 02:23:15;;;;;;;38.65;26.58;;;12.40;99.90;;;12.66;95.66;102601.31;5114818;28;20139;-66
2022/11/11 02:26:07;;;;;;;41.33;27.08;;;12.50;99.90;;;12.61;95.96;102598.63;5114702;28;20116;-67
2022/11/11 02:28:55;;;;;;;43.20;27.73;;;12.40;99.90;;;12.55;96.29;102597.63;5114387;28;20039;-66
2022/11/11 02:31:43;;;;;;;48.10;27.67;;;12.40;99.90;;;12.72;95.98;102608.53;5114885;28;20138;-65
2022/11/11 02:34:31;;;;;;;48.70;27.42;;;12.40;99.90;;;12.51;95.90;102574.56;5114670;28;20047;-66
2022/11/11 02:37:22;;;;;;;48.45;27.27;;;12.50;99.90;;;12.68;95.99;102594.28;5114641;28;20218;-65
2022/11/11 02:40:11;;;;;;;;;;;12.40;99.90;;;11.95;96.21;102494.09;5115178;28;20151;-66
2022/11/11 02:42:59;;;;;;;43.53;28.58;;;12.50;99.90;;;12.62;96.38;102599.50;5115328;28;20469;-66
2022/11/11 02:45:47;;;;;;;46.25;29.25;;;12.40;99.90;;;12.76;96.21;102607.66;5115210;28;20120;-66
2022/11/11 02:48:35;;;;;;;41.38;26.83;;;12.50;99.90;;;12.74;95.98;102605.00;5115242;28;20136;-66
2022/11/11 02:51:22;;;;;;;45.55;28.35;;;12.50;99.90;;;11.67;95.57;102417.66;5115438;28;20044;-66
2022/11/11 02:54:09;;;;;;;43.92;28.02;;;12.50;99.90;;;12.78;95.58;102603.28;5115394;28;20059;-66
2022/11/11 02:57:08;;;;;;;43.40;27.92;;;12.50;99.90;;;12.79;95.52;102594.44;5114957;28;20413;-66
2022/11/11 03:00:01;;;;;;;41.55;27.60;;;12.50;99.90;;;12.72;95.73;102596.09;5115011;28;20054;-66
2022/11/11 03:02:47;;;;;;;43.00;27.95;;;12.50;99.90;;;12.80;95.50;102604.19;5114926;28;20059;-66
2022/11/11 03:05:35;;;;;;;48.25;28.15;;;12.50;99.90;;;12.47;95.36;102562.09;5114856;28;20051;-66
2022/11/11 03:08:24;;;;;;;42.65;27.85;;;12.50;99.90;;;12.72;95.86;102605.88;5114815;28;20051;-66
2022/11/11 03:11:11;;;;;;;46.45;28.83;;;12.50;99.90;;;12.72;95.78;102614.69;5114790;28;20062;-66
2022/11/11 03:13:59;;;;;;;39.80;27.55;;;12.50;99.90;;;12.74;95.43;102601.47;5114916;28;20050;-66
2022/11/11 03:21:03;;;;;;;43.92;29.17;;;12.60;99.90;;;12.76;95.05;102589.97;5114547;28;20050;-66
2022/11/11 03:23:01;;;;;;;48.00;28.90;;;12.60;99.90;;;11.22;94.23;102327.66;5114559;28;20038;-66
2022/11/11 03:25:50;;;;;;;49.90;28.98;;;12.70;99.90;;;12.85;94.80;102616.69;5114716;28;20412;-66
2022/11/11 03:28:43;;;;;;;47.78;29.45;;;12.60;99.90;;;12.86;94.78;102605.19;5114627;28;20058;-66
2022/11/11 03:31:30;;;;;;;46.13;28.95;;;12.60;99.90;;;12.80;94.84;102621.03;5114321;28;20088;-66
2022/11/11 03:34:18;;;;;;;50.40;29.83;;;12.60;99.90;;;12.64;95.04;102596.00;5114461;28;20169;-66
2022/11/11 03:40:13;;;;;;;46.25;31.02;;;12.40;99.90;;;12.65;95.42;102599.56;5113736;28;20123;-66
2022/11/11 03:43:00;;;;;;;50.45;32.35;;;12.40;99.90;;;12.70;95.12;102619.09;5114353;28;20046;-66
2022/11/11 03:45:51;;;;;;;49.83;32.47;;;12.50;99.90;;;12.66;95.25;102611.94;5114230;28;20100;-66
2022/11/11 03:48:39;;;;;;;46.92;31.17;;;12.50;99.90;;;11.91;95.46;102464.84;5114051;28;20115;-66
2022/11/11 03:51:28;;;;;;;53.33;32.22;;;12.50;99.90;;;12.41;95.41;102577.94;5114084;28;20407;-66
2022/11/11 03:54:16;;;;;;;48.50;32.23;;;12.40;99.90;;;12.59;95.84;102613.63;5114142;28;20165;-66
2022/11/11 04:00:09;;;;;;;48.63;31.58;;;12.30;99.90;;;12.54;95.93;102615.31;5114156;28;20339;-66
2022/11/11 04:12:23;;;;;;;48.95;31.20;;;12.40;99.90;;;12.62;95.71;102634.00;5113968;28;20401;-66
2022/11/11 04:18:15;;;;;;;45.78;30.48;;;12.40;99.90;;;12.64;95.68;102640.22;5113670;28;20054;-66
2022/11/11 04:27:11;;;;;;;48.40;29.77;;;12.40;99.90;;;12.48;95.60;102620.56;5113701;28;20059;-66
2022/11/11 04:30:00;;;;;;;42.30;30.20;;;12.40;99.90;;;12.47;95.57;102607.22;5113662;28;20051;-66
2022/11/11 04:32:47;;;;;;;43.70;29.63;;;12.30;99.90;;;12.18;95.42;102551.06;5113587;28;20565;-65
2022/11/11 04:35:34;;;;;;;44.05;30.00;;;12.30;99.90;;;12.61;95.22;102621.63;5113710;28;20050;-66
2022/11/11 04:41:27;;;;;;;41.45;28.83;;;12.30;99.90;;;12.48;95.54;102614.34;5073008;28;20059;-65
2022/11/11 04:47:55;;;;;;;45.22;30.15;;;12.20;99.90;;;12.55;95.12;102605.59;5073150;28;20554;-66
2022/11/11 04:50:44;;;;;;;50.28;29.73;;;12.30;99.90;;;12.45;94.83;102585.06;5074019;28;20047;-66
2022/11/11 04:53:31;;;;;;;41.63;28.23;;;12.30;99.90;;;12.27;94.74;102567.09;5076724;28;20052;-66
2022/11/11 04:59:23;;;;;;;40.33;28.90;;;12.20;99.90;;;12.45;95.36;102604.56;5076589;28;20141;-66
2022/11/11 05:05:16;;;;;;;43.38;28.65;;;12.20;99.90;;;12.48;95.50;102611.69;5076573;28;20039;-66
2022/11/11 05:11:08;;;;;;;44.28;28.52;;;12.20;99.90;;;10.31;95.01;102274.88;5076896;28;20108;-65
2022/11/11 05:23:14;;;;;;;37.92;26.15;;;12.30;99.90;;;12.43;94.69;102616.00;5076278;28;20056;-66
2022/11/11 05:26:00;;;;;;;47.00;28.88;;;12.20;99.90;;;12.15;94.80;102576.63;5076221;28;20094;-65
2022/11/11 05:28:47;;;;;;;46.67;29.65;;;12.20;99.90;;;12.34;94.92;102608.81;5076141;28;20105;-66
2022/11/11 05:31:34;;;;;;;42.63;29.42;;;12.20;99.90;;;12.38;94.78;102618.63;5076098;28;20047;-66
2022/11/11 05:34:21;;;;;;;41.90;29.92;;;12.20;99.90;;;12.33;95.25;102627.38;5076221;28;20101;-65
2022/11/11 05:37:09;;;;;;;44.08;29.30;;;12.10;99.90;;;12.32;95.52;102620.25;5075954;28;20055;-66
2022/11/11 05:39:56;;;;;;;45.15;30.58;;;12.10;99.90;;;12.32;95.26;102612.31;5097893;28;20066;-66
2022/11/11 05:42:43;;;;;;;43.50;30.15;;;12.10;99.90;;;12.30;95.23;102627.31;5116833;28;20051;-66
2022/11/11 05:45:37;;;;;;;44.83;30.58;;;12.10;99.90;;;12.18;95.48;102597.91;5116760;28;20085;-66
2022/11/11 05:48:24;;;;;;;45.63;31.52;;;12.10;99.90;;;12.18;95.24;102604.09;5116359;28;20051;-66
2022/11/11 05:51:26;;;;;;;45.42;30.83;;;12.10;99.90;;;12.31;95.40;102624.66;5116761;28;20510;-65
2022/11/11 05:54:15;;;;;;;43.28;29.75;;;12.10;99.90;;;12.24;95.57;102621.88;5116306;28;20049;-66
2022/11/11 05:57:03;;;;;;;44.97;30.08;;;12.00;99.90;;;12.21;95.78;102632.47;5116228;28;20051;-68
2022/11/11 05:59:50;;;;;;;47.58;31.55;;;12.00;99.90;;;12.15;96.06;102612.03;5116314;28;20050;-67
2022/11/11 06:02:38;;;;;;;42.53;31.15;;;12.00;99.90;;;12.15;96.02;102633.25;5115926;28;20042;-68
2022/11/11 06:05:24;;;;;;;47.33;31.60;;;11.90;99.90;;;12.24;96.00;102637.81;5116341;28;20074;-68
2022/11/11 06:08:11;;;;;;;46.90;32.22;;;12.00;99.90;;;12.12;95.68;102621.66;5116347;28;20392;-68
2022/11/11 06:10:59;;;;;;;50.97;32.97;;;12.00;99.90;;;12.19;95.49;102644.81;5116134;28;20059;-68
2022/11/11 06:13:46;;;;;;;52.50;33.33;;;12.00;99.90;;;12.11;95.56;102643.78;5116383;28;20400;-67
2022/11/11 06:16:33;;;;;;;47.88;33.72;;;12.00;99.90;;;12.12;96.16;102645.53;5115779;28;20054;-68
2022/11/11 06:19:20;;;;;;;47.95;33.25;;;11.90;99.90;;;12.03;96.25;102625.06;5116108;28;20046;-67
2022/11/11 06:22:07;;;;;;;48.50;32.92;;;11.90;99.90;;;12.12;96.18;102656.16;5115829;28;20059;-68
2022/11/11 06:26:11;;;;;;;47.83;33.58;;;11.90;99.90;;;12.22;96.06;102644.84;5115906;28;20050;-68
2022/11/11 06:28:02;;;;;;;46.35;32.80;;;12.00;99.90;;;12.15;96.13;102659.78;5115460;28;20059;-68
2022/11/11 06:30:49;;;;;;;49.97;34.03;;;11.90;99.90;;;12.06;95.83;102629.56;5115801;28;20139;-66
2022/11/11 06:33:38;;;;;;;55.05;32.67;;;12.00;99.90;;;12.13;95.84;102650.00;5115768;28;20112;-66
2022/11/11 06:36:25;;;;;;;50.63;33.28;;;11.90;99.90;;;12.16;95.85;102655.34;5115733;28;20169;-66
2022/11/11 06:39:12;;;;;;;47.10;31.75;;;11.90;99.90;;;12.08;95.82;102639.28;5115231;28;20127;-66
2022/11/11 06:42:00;;;;;;;46.00;31.15;;;11.90;99.90;;;12.15;95.77;102667.75;5115363;28;20413;-66
2022/11/11 06:44:50;;;;;;;44.30;30.35;;;11.90;99.90;;;12.11;95.63;102663.25;5115536;28;20401;-66
2022/11/11 06:47:37;;;;;;;42.65;29.95;;;11.90;99.90;;;12.11;95.74;102657.94;5115473;28;20522;-66
2022/11/11 06:50:24;;;;;;;41.83;31.23;;;11.90;99.90;;;12.14;95.43;102667.69;5115377;28;20109;-66
2022/11/11 06:53:13;;;;;;;45.47;30.15;;;11.90;99.90;;;12.08;95.68;102665.81;5115415;28;20054;-65
2022/11/11 06:56:00;;;;;;;43.60;30.73;;;11.90;99.90;;;12.20;95.13;102679.31;5114947;28;20181;-66
2022/11/11 06:58:48;;;;;;;42.45;31.02;;;12.00;99.90;;;12.06;95.14;102680.81;5114828;28;20405;-66
2022/11/11 07:01:36;;;;;;;44.13;31.40;;;11.90;99.90;;;12.21;95.18;102674.91;5115222;28;20051;-66
2022/11/11 07:04:25;;;;;;;48.40;32.20;;;12.00;99.90;;;12.06;94.70;102629.56;5114874;28;20055;-66
2022/11/11 07:07:12;;;;;;;46.95;31.88;;;12.00;99.90;;;12.15;94.58;102672.16;5114823;28;20042;-66
2022/11/11 07:10:00;;;;;;;46.92;32.92;;;12.00;99.90;;;11.96;95.00;102652.38;5114850;28;20169;-66
2022/11/11 07:12:47;;;;;;;50.55;34.20;;;11.90;99.90;;;12.14;95.27;102667.69;5114934;28;20120;-66
2022/11/11 07:15:37;;;;;;;55.45;33.20;;;11.90;99.90;;;12.02;94.96;102676.31;5113847;28;20149;-66
2022/11/11 07:18:25;;;;;;;51.97;34.53;;;11.80;99.90;;;11.84;95.41;102653.88;5114801;28;20058;-66
2022/11/11 07:21:12;;;;;;;46.28;33.35;;;11.80;99.90;;;12.00;95.63;102695.75;5114586;28;20405;-66
2022/11/11 07:23:59;;;;;;;51.05;35.65;;;11.80;99.90;;;11.98;95.47;102676.25;5114810;28;20132;-66
2022/11/11 07:26:46;;;;;;;52.40;34.13;;;11.80;99.90;;;11.91;95.39;102667.28;5114613;28;20174;-66
2022/11/11 07:29:33;;;;;;;44.08;29.60;;;11.80;99.90;;;12.02;95.41;102692.22;5114573;28;20141;-66
2022/11/11 07:32:20;;;;;;;42.92;30.77;;;11.80;99.90;;;11.99;95.58;102685.97;5114379;28;20046;-67
2022/11/11 07:35:09;;;;;;;49.15;31.23;;;11.80;99.90;;;11.99;95.70;102697.50;5114536;28;20512;-66
2022/11/11 07:37:56;;;;;;;48.28;32.83;;;11.80;99.90;;;11.91;95.86;102669.94;5114302;28;20506;-66
2022/11/11 07:40:43;;;;;;;49.33;34.15;;;11.70;99.90;;;11.99;96.20;102704.53;5114099;28;20066;-66
2022/11/11 07:43:30;;;;;;;50.10;32.17;;;11.70;99.90;;;11.99;96.31;102683.31;5114311;28;20051;-66
2022/11/11 07:46:17;;;;;;;49.17;33.33;;;11.70;99.90;;;11.86;96.04;102686.63;5113990;28;20624;-66
2022/11/11 07:49:04;;;;;;;50.70;34.25;;;11.80;99.90;;;11.99;96.11;102686.88;5113978;28;20058;-66
2022/11/11 07:51:52;;;;;;;53.83;36.90;;;11.80;99.90;;;11.30;95.90;102587.41;5114141;28;20054;-65
2022/11/11 07:54:39;;;;;;;55.90;38.33;;;11.80;99.90;;;11.76;96.54;102686.44;5114377;28;20054;-65
2022/11/11 07:57:28;;;;;;;62.00;40.08;;;11.70;99.90;;;11.89;96.89;102713.19;5114071;28;20046;-65
2022/11/11 08:00:19;;;;;;;58.85;38.83;;;11.70;99.90;;;11.82;97.07;102676.81;5114056;28;20096;-66
2022/11/11 08:03:06;;;;;;;59.92;39.47;;;11.80;99.90;;;11.93;97.00;102715.03;5113982;28;20054;-66
2022/11/11 08:05:55;;;;;;;64.13;40.92;;;11.70;99.90;;;11.75;96.94;102674.03;5113306;28;20054;-66
2022/11/11 08:08:46;;;;;;;59.38;41.25;;;11.70;99.90;;;11.86;97.26;102699.88;5113914;28;20054;-66
2022/11/11 08:14:38;;;;;;;69.15;43.88;;;11.70;99.90;;;11.90;97.53;102730.91;5113641;28;20119;-66
2022/11/11 08:17:25;;;;;;;71.72;44.97;;;11.70;99.90;;;11.86;97.79;102727.28;5113514;28;20051;-66
2022/11/11 08:20:13;;;;;;;69.63;44.92;;;11.70;99.90;;;11.66;97.84;102689.78;5113504;28;20055;-65
2022/11/11 08:23:03;;;;;;;70.20;44.75;;;11.70;99.90;;;12.06;98.02;102743.59;5113435;28;20105;-66
2022/11/11 08:26:11;;;;;;;72.75;45.13;;;11.70;99.90;;;11.89;97.75;102745.00;5113432;28;20647;-66
2022/11/11 08:28:58;;;;;;;72.20;47.83;;;11.80;99.90;;;11.96;97.95;102771.72;5113686;28;20148;-66
2022/11/11 08:31:45;;;;;;;69.05;44.58;;;11.80;99.90;;;12.08;98.08;102768.41;5113692;28;20058;-66
2022/11/11 08:34:32;;;;;;;72.45;47.60;;;11.80;99.90;;;12.15;97.73;102762.34;5113382;28;20093;-66
2022/11/11 08:37:18;;;;;;;72.20;44.88;;;11.90;99.90;;;12.06;97.64;102765.69;5113236;28;20104;-66
2022/11/11 08:40:09;;;;;;;69.05;44.30;;;11.80;99.90;;;12.00;97.67;102792.09;5113226;28;20054;-66
2022/11/11 08:42:58;;;;;;;70.57;45.47;;;11.80;99.90;;;12.01;97.84;102763.81;5113877;28;20058;-66
2022/11/11 08:45:45;;;;;;;74.63;46.47;;;11.80;99.90;;;11.97;98.04;102760.22;5113604;28;20285;-65
2022/11/11 08:48:32;;;;;;;68.78;44.80;;;11.80;99.90;;;11.77;97.96;102773.06;5113524;28;20054;-66
2022/11/11 08:51:19;;;;;;;68.93;45.80;;;11.80;99.90;;;11.92;97.97;102772.50;5113446;28;20058;-66
2022/11/11 08:54:06;;;;;;;70.45;46.28;;;11.80;99.90;;;11.93;98.21;102773.38;5113230;28;20054;-66
2022/11/11 08:56:53;;;;;;;67.85;43.92;;;11.80;99.90;;;11.86;98.31;102763.53;5113446;28;20562;-66
2022/11/11 08:59:41;;;;;;;72.80;45.47;;;11.70;99.90;;;11.91;98.16;102769.78;5112950;28;20131;-66
2022/11/11 09:02:28;;;;;;;68.65;42.97;;;11.70;99.90;;;11.93;98.33;102779.59;5113188;28;20101;-65
2022/11/11 09:05:15;;;;;;;66.60;43.70;;;11.70;99.90;;;11.85;98.50;102759.06;5113340;28;20507;-65
2022/11/11 09:08:04;;;;;;;70.32;45.50;;;11.70;99.90;;;12.01;98.40;102782.38;5113117;28;20055;-66
2022/11/11 09:10:51;;;;;;;69.05;44.70;;;11.80;99.90;;;11.94;98.62;102756.63;5113097;28;20437;-66
2022/11/11 09:13:39;;;;;;;67.32;45.42;;;11.90;99.90;;;12.16;98.42;102780.03;5113371;28;20062;-66
2022/11/11 09:16:27;;;;;;;67.75;44.13;;;11.90;99.90;;;12.21;98.28;102792.56;5113180;28;20120;-66
2022/11/11 09:19:14;;;;;;;62.72;43.28;;;12.00;99.90;;;12.19;97.67;102778.38;5113202;28;20059;-66
2022/11/11 09:22:01;;;;;;;64.18;42.75;;;12.00;99.90;;;12.29;97.45;102798.00;5113246;28;20577;-66
2022/11/11 09:24:48;;;;;;;60.47;40.95;;;12.10;99.90;;;12.32;96.94;102803.38;5112978;28;20058;-66
2022/11/11 09:27:35;;;;;;;56.92;40.38;;;12.10;99.90;;;12.14;96.95;102779.13;5113164;28;20510;-66
2022/11/11 09:30:22;;;;;;;59.20;39.85;;;12.10;99.90;;;12.07;96.77;102771.91;5113196;28;20511;-66
2022/11/11 09:33:11;;;;;;;54.65;38.90;;;12.00;99.90;;;12.27;96.76;102797.09;5113142;28;20059;-65
2022/11/11 09:35:58;;;;;;;60.13;40.67;;;12.10;99.90;;;12.31;96.69;102807.75;5113078;28;20515;-65
2022/11/11 09:38:45;;;;;;;50.75;37.42;;;12.10;99.90;;;12.31;96.52;102805.13;5115631;28;20046;-66
2022/11/11 09:41:46;;;;;;;54.00;37.22;;;12.10;99.90;;;12.32;96.42;102803.38;5116653;28;20140;-65
2022/11/11 09:45:13;;;;;;;53.00;36.80;;;12.10;99.90;;;12.42;96.28;102815.94;5116699;28;20055;-66
2022/11/11 09:48:15;;;;;;;53.13;37.22;;;12.10;99.90;;;12.35;96.25;102820.22;5116601;28;20447;-66
2022/11/11 09:51:04;;;;;;;53.75;37.13;;;12.10;99.90;;;12.34;96.11;102809.59;5116353;28;20207;-65
2022/11/11 09:53:57;;;;;;;56.58;38.40;;;12.20;99.90;;;12.15;96.43;102771.22;5116216;28;20511;-66
2022/11/11 09:56:44;;;;;;;58.75;37.97;;;12.20;99.90;;;11.98;96.04;102727.50;5116318;28;20050;-65
2022/11/11 09:59:42;;;;;;;48.47;36.50;;;12.30;99.90;;;12.54;95.61;102830.34;5116021;28;20059;-65
2022/11/11 10:02:41;;;;;;;51.95;37.92;;;12.30;99.90;;;12.59;95.14;102823.38;5116132;28;20050;-65
2022/11/11 10:05:42;;;;;;;52.85;36.38;;;12.40;99.90;;;12.48;95.29;102835.56;5116239;28;20050;-66
2022/11/11 10:08:34;;;;;;;57.42;36.33;;;12.30;99.90;;;12.56;95.22;102828.59;5116011;28;20043;-66
2022/11/11 10:11:45;;;;;;;57.28;38.78;;;12.30;99.90;;;12.48;94.82;102806.34;5115895;28;20607;-66
2022/11/11 10:14:37;;;;;;;54.42;37.90;;;12.40;99.90;;;12.45;94.39;102822.22;5115916;28;20054;-66
2022/11/11 10:17:34;;;;;;;55.95;38.92;;;12.40;99.90;;;12.69;94.72;102849.25;5115752;28;20042;-66
2022/11/11 10:20:26;;;;;;;55.78;38.50;;;12.50;99.90;;;12.71;94.58;102843.94;5115681;28;20046;-66
2022/11/11 10:23:18;;;;;;;52.80;38.13;;;12.50;99.90;;;12.64;94.24;102852.66;5115847;28;20520;-66
2022/11/11 10:26:15;;;;;;;56.08;37.65;;;12.40;99.90;;;12.55;94.39;102831.25;5115662;28;20043;-66
2022/11/11 10:29:04;;;;;;;54.92;36.92;;;12.40;99.90;;;12.72;94.54;102850.16;5115632;28;20515;-65
2022/11/11 10:32:05;;;;;;;49.90;35.83;;;12.50;99.90;;;12.61;94.28;102834.91;5115277;28;20428;-65
2022/11/11 10:34:52;;;;;;;53.13;37.47;;;12.50;99.90;;;12.76;94.07;102868.81;5115586;28;20058;-66
2022/11/11 10:37:42;;;;;;;52.88;37.85;;;12.50;99.90;;;12.42;94.21;102808.00;5115515;28;20124;-65
2022/11/11 10:40:39;;;;;;;61.90;39.78;;;12.50;99.90;;;12.70;94.17;102848.34;5115314;28;20070;-66
2022/11/11 10:43:28;;;;;;;52.00;36.33;;;12.50;99.90;;;12.82;93.98;102858.31;5115312;28;20055;-65
2022/11/11 10:46:21;;;;;;;49.42;34.53;;;12.60;99.90;;;12.91;93.81;102869.09;5115308;28;20050;-65
2022/11/11 10:49:17;;;;;;;45.72;32.08;;;12.60;99.90;;;12.85;93.39;102861.03;5114941;28;20047;-66
2022/11/11 10:52:10;;;;;;;50.30;34.03;;;12.60;99.90;;;12.86;93.50;102854.84;5115384;28;20046;-65
2022/11/11 10:55:04;;;;;;;50.35;34.90;;;12.60;99.90;;;12.78;93.04;102852.91;5115342;28;20077;-65
2022/11/11 10:57:59;;;;;;;50.58;35.83;;;12.60;99.90;;;12.91;93.11;102841.66;5115088;28;20123;-65
2022/11/11 11:00:48;;;;;;;50.30;35.00;;;12.70;99.90;;;13.11;93.32;102856.19;5114904;28;20629;-65
2022/11/11 11:03:40;;;;;;;57.47;37.30;;;12.80;99.90;;;13.07;93.01;102857.00;5114930;28;20051;-65
2022/11/11 11:06:33;;;;;;;50.30;35.97;;;12.90;99.90;;;13.04;92.17;102831.31;5115110;28;20050;-65
2022/11/11 11:09:25;;;;;;;46.03;35.30;;;12.90;99.90;;;13.19;92.52;102850.16;5115138;28;20065;-65
2022/11/11 11:12:17;;;;;;;51.40;34.20;;;13.00;99.90;;;13.21;92.19;102851.06;5114679;28;20066;-65
2022/11/11 11:15:11;;;;;;;49.03;35.75;;;13.00;99.90;;;13.15;91.83;102818.19;5114703;28;20080;-65
2022/11/11 11:18:05;;;;;;;46.50;34.13;;;13.10;99.90;;;13.39;90.91;102848.69;5114907;28;20066;-65
2022/11/11 11:20:58;;;;;;;47.35;32.17;;;13.20;99.90;;;13.21;90.75;102794.34;5114742;28;20051;-65
2022/11/11 11:23:46;;;;;;;41.78;30.50;;;13.30;99.90;;;13.50;90.00;102847.13;5114866;28;20116;-65
2022/11/11 11:26:48;;;;;;;42.78;31.30;;;13.30;99.90;;;13.49;89.69;102842.66;5114326;28;20121;-66
2022/11/11 11:29:37;;;;;;;43.22;32.30;;;13.30;99.90;;;13.46;89.43;102824.00;5114342;28;20043;-66
2022/11/11 11:32:31;;;;;;;44.17;32.30;;;13.40;99.90;;;13.72;88.84;102843.00;5114338;28;20058;-66
2022/11/11 11:35:36;;;;;;;45.58;29.98;;;13.50;99.90;;;13.76;88.29;102843.94;5114456;28;20437;-66
2022/11/11 11:38:41;;;;;;;37.63;26.73;;;13.50;99.90;;;13.75;88.18;102826.19;5114221;28;20432;-66
2022/11/11 11:41:40;;;;;;;34.15;25.80;;;13.50;99.90;;;13.92;87.91;102838.84;5114221;28;20058;-66
2022/11/11 11:44:29;;;;;;;38.58;26.60;;;13.70;99.90;;;13.88;87.07;102812.19;5114343;28;20059;-65
2022/11/11 11:47:35;;;;;;;35.25;23.58;;;13.80;99.90;;;14.18;86.56;102844.50;5114093;28;20055;-66
2022/11/11 11:50:37;;;;;;;29.77;23.52;;;14.00;99.90;;;14.13;86.24;102830.25;5114301;28;20139;-67
2022/11/11 11:53:42;;;;;;;34.20;24.42;;;14.00;99.90;;;14.27;86.10;102855.25;5114236;28;20128;-67
2022/11/11 11:56:39;;;;;;;33.05;23.10;;;14.00;99.90;;;14.09;85.51;102855.06;5113885;28;20096;-66
2022/11/11 11:59:36;;;;;;;32.38;24.00;;;14.00;99.90;;;13.87;86.12;102847.63;5114124;28;20046;-67
2022/11/11 12:02:51;;;;;;;31.30;24.30;;;14.00;99.90;;;14.08;85.76;102800.91;5113646;28;20039;-67
2022/11/11 12:05:43;;;;;;;31.35;23.90;;;13.90;99.90;;;14.36;85.71;102824.34;5113912;28;20096;-67
2022/11/11 12:08:57;;;;;;;31.33;22.70;;;14.10;99.90;;;14.41;85.12;102832.41;5114055;28;20153;-67
2022/11/11 12:11:54;;;;;;;32.22;21.58;;;14.20;99.90;;;14.36;85.05;102828.81;5113728;28;20412;-67
2022/11/11 12:15:04;;;;;;;27.00;21.13;;;14.20;99.90;;;14.51;84.85;102831.63;5113723;28;20461;-67
2022/11/11 12:18:10;;;;;;;33.00;21.38;;;14.30;99.90;;;14.68;84.56;102839.78;5113588;28;20507;-66
2022/11/11 12:21:04;;;;;;;23.75;18.58;;;14.40;99.90;;;14.69;84.60;102825.59;5113455;28;20043;-67
2022/11/11 12:24:01;;;;;;;25.73;18.73;;;14.50;99.90;;;14.73;83.92;102819.44;5113572;28;20055;-66
2022/11/11 12:26:57;;;;;;;24.13;18.25;;;14.50;99.90;;;14.94;83.60;102831.16;5113496;28;20073;-66
2022/11/11 12:30:02;;;;;;;26.90;18.55;;;14.70;99.90;;;15.08;83.03;102831.28;5113504;28;20053;-67
2022/11/11 12:33:39;;;;;;;21.08;18.08;;;14.90;99.90;;;14.98;82.80;102803.66;5113385;28;20177;-66
2022/11/11 12:36:35;;;;;;;21.17;16.95;;;14.90;99.90;;;13.70;82.35;102565.50;5113453;28;20420;-66
2022/11/11 12:39:50;;;;;;;22.05;16.25;;;15.10;99.90;;;15.34;81.80;102830.63;5113681;28;20062;-66
2022/11/11 12:43:05;;;;;;;22.13;17.08;;;15.10;99.90;;;15.29;81.27;102811.03;5113722;28;20147;-66
2022/11/11 12:46:04;;;;;;;20.10;16.15;;;15.20;99.90;;;15.30;80.68;102786.16;5113359;28;20124;-65
2022/11/11 12:49:05;;;;;;;19.90;15.57;;;15.30;99.90;;;15.76;79.98;102830.03;5113297;28;20189;-65
2022/11/11 12:52:04;;;;;;;21.30;16.30;;;15.50;99.90;;;15.92;79.34;102829.25;5113260;28;20051;-66
2022/11/11 12:55:15;;;;;;;20.48;14.57;;;15.70;99.90;;;16.06;78.26;102832.00;5113302;28;20145;-66
2022/11/11 12:58:20;;;;;;;16.63;13.90;;;15.80;99.90;;;16.27;77.83;102837.41;5113221;28;20098;-66
2022/11/11 13:01:19;;;;;;;18.40;13.55;;;16.00;99.90;;;16.41;77.13;102834.78;5113257;28;20058;-66